Bloomfield, NM (87413)

10:34 PM MDT on August 21, 2014 (GMT -0600)
Aztec, NM 87410 | Change Station
CLOSE
Current Station
Personal Weather Station
Location: Aztec, NM
Elevation: 5682 ft
Nearby Weather Stations

Elev 5682 ft 36.82 °N, 107.99 °W | Updated 1 minute ago

Overcast
Overcast
73.2 °F
Feels Like 76 °F
N
0.0
Wind Variable Wind from SE

Today
High -- | Low -- °F
--% Chance of Precip.
Yesterday
High -- | Low -- °F
Precip. -- in
6:34 AM 7:55 PM
Waning Crescent, 10% visible
Pressure 29.96 in
Visibility 10.0 miles
Clouds Few 6000 ft
Few 7000 ft
Overcast 9000 ft
Heat Index 76 °F
Dew Point 38 °F
Humidity 28%
Rainfall 0.00 in
Snow Depth Not available.
UV 0 out of 12
Pollen 7.70 out of 12
Air Quality Not available.
Flu Activity Not available.
METAR KFMN 220353Z 30008KT 10SM FEW060 FEW070 OVC090 24/02 A3013 RMK AO2 RAB35E49 SLP143 P0000 T02390022

More Conditions Fewer Conditions

Pressure 29.96 in
Visibility 10.0 miles
Clouds Few 6000 ft
Few 7000 ft
Overcast 9000 ft
Heat Index 76 °F
Dew Point 38 °F
Humidity 28%
Rainfall 0.00 in
Snow Depth Not available.
UV 0 out of 12
Pollen 7.70 out of 12
Air Quality Not available.
Flu Activity Not available.
METAR KFMN 220353Z 30008KT 10SM FEW060 FEW070 OVC090 24/02 A3013 RMK AO2 RAB35E49 SLP143 P0000 T02390022

More Conditions Fewer Conditions

10-Day Weather Forecast

Almanac

Astronomy

Aug. 21, 2014 Rise Set
Actual Time 6:34 AM MDT 7:55 PM MDT
Civil Twilight 6:07 AM MDT 8:22 PM MDT
Nautical Twilight 5:34 AM MDT 8:54 PM MDT
Astronomical Twilight 5:00 AM MDT 9:28 PM MDT
Moon 3:09 AM MDT (8/21) 5:23 PM MDT (8/21)
Length of Visible Light 14h 15m
Length of Day
13h 21m
Tomorrow will be 2m 8s shorter.
Waning Crescent, 10% of the Moon is Illuminated
Aug 22
Waning Crescent
Aug 25
New
Sep 2
First Quarter
Sep 8
Full
Sep 15
Last Quarter

Today's Extremes

State Highs State Lows

Community

WunderPhotos

Upload Photos

1,746,127 photos uploaded!

Nearby

Snow Depth

Station Depth Elevation
Chamita 0 in 8400 ft
Senorita Divide #2 0 in 8600 ft
Bateman 0 in 9300 ft
Hopewell 0 in 10000 ft
Quemazon 1 in 9500 ft

Earthquake Activity

City Distance Mag. Time & Date
No recent earthquake activity has been reported nearby.
Minimum magnitude displayed is 2.5.

Coastal Water Temperatures

Place Temperature
No Stations Reporting

Nearby Weather Stations